createdAt,value
2018-05-18T00:01:49.736Z,76.96
2018-05-18T00:02:49.795Z,76.57
2018-05-18T00:04:42.791Z,77.53
2018-05-18T00:05:42.841Z,76.77
2018-05-18T00:07:35.826Z,76.86
2018-05-18T00:08:35.884Z,77.06
2018-05-18T00:10:28.879Z,77.59
2018-05-18T00:11:28.932Z,77.40
2018-05-18T00:13:21.923Z,77.30
2018-05-18T00:14:21.981Z,77.69
2018-05-18T00:16:14.963Z,77.59
2018-05-18T00:17:15.029Z,77.59
2018-05-18T00:19:08.024Z,77.01
2018-05-18T00:20:08.077Z,77.20
2018-05-18T00:22:01.078Z,76.92
2018-05-18T00:23:01.139Z,77.30
2018-05-18T00:24:54.138Z,77.49
2018-05-18T00:25:54.184Z,77.40
2018-05-18T00:27:47.174Z,77.01
2018-05-18T00:28:47.234Z,77.87
2018-05-18T00:30:40.234Z,77.59
2018-05-18T00:31:40.282Z,77.30
2018-05-18T00:33:33.280Z,77.69
2018-05-18T00:34:33.326Z,78.06
2018-05-18T00:36:26.309Z,76.92
2018-05-18T00:37:26.374Z,77.78
2018-05-18T00:39:19.362Z,77.49
2018-05-18T00:40:19.413Z,77.40
2018-05-18T00:42:12.406Z,77.69
2018-05-18T00:43:12.467Z,77.59
2018-05-18T00:45:05.460Z,77.49
2018-05-18T00:46:05.512Z,77.49
2018-05-18T00:47:58.497Z,77.59
2018-05-18T00:48:58.557Z,77.40
2018-05-18T00:50:51.548Z,77.59
2018-05-18T00:51:51.600Z,77.40
2018-05-18T00:53:44.596Z,77.78
2018-05-18T00:54:44.648Z,77.40
2018-05-18T00:56:37.636Z,77.59
2018-05-18T00:57:37.702Z,77.49
2018-05-18T00:59:30.689Z,77.49
2018-05-18T01:00:30.742Z,77.40
2018-05-18T01:02:23.725Z,77.59
2018-05-18T01:03:23.785Z,77.30
2018-05-18T01:05:16.777Z,77.49
2018-05-18T01:06:16.832Z,77.59
2018-05-18T01:08:09.818Z,77.69
2018-05-18T01:09:09.877Z,77.40
2018-05-18T01:11:02.876Z,77.49
2018-05-18T01:12:02.920Z,77.36
2018-05-18T01:13:55.915Z,77.55
2018-05-18T01:14:55.966Z,77.40
2018-05-18T01:16:48.956Z,77.59
2018-05-18T01:17:49.013Z,77.59
2018-05-18T01:19:42.009Z,77.45
2018-05-18T01:20:42.059Z,77.83
2018-05-18T01:22:35.045Z,78.16
2018-05-18T01:23:35.107Z,78.25
2018-05-18T01:25:28.098Z,77.64
2018-05-18T01:26:28.153Z,77.83
2018-05-18T01:28:21.136Z,78.25
2018-05-18T01:29:21.196Z,78.25
2018-05-18T01:31:14.193Z,77.87
2018-05-18T01:32:14.246Z,77.87
2018-05-18T01:34:07.260Z,78.16
2018-05-18T01:35:07.294Z,77.69
2018-05-18T01:37:00.289Z,77.83
2018-05-18T01:38:00.353Z,77.55
2018-05-18T01:39:53.339Z,77.55
2018-05-18T01:40:53.392Z,78.16
2018-05-18T01:42:46.376Z,78.22
2018-05-18T01:43:46.439Z,77.87
2018-05-18T01:45:39.430Z,78.25
2018-05-18T01:46:39.485Z,77.93
2018-05-18T01:48:32.472Z,78.06
2018-05-18T01:49:32.530Z,78.03
2018-05-18T01:51:25.526Z,77.78
2018-05-18T01:52:25.579Z,77.97
2018-05-18T01:54:18.566Z,77.78
2018-05-18T01:55:18.619Z,77.97
2018-05-18T01:57:11.605Z,78.22
2018-05-18T01:58:11.671Z,77.97
2018-05-18T02:00:04.655Z,78.22
2018-05-18T02:01:04.711Z,78.64
2018-05-18T02:02:57.703Z,78.64
2018-05-18T02:03:57.763Z,78.16
2018-05-18T02:05:50.755Z,78.06
2018-05-18T02:06:50.803Z,78.41
2018-05-18T02:08:43.797Z,78.50
2018-05-18T02:09:43.858Z,78.16
2018-05-18T02:11:36.852Z,78.22
2018-05-18T02:12:36.902Z,78.59
2018-05-18T02:14:29.892Z,78.03
2018-05-18T02:15:29.947Z,77.93
2018-05-18T02:17:22.932Z,78.31
2018-05-18T02:18:22.990Z,78.22
2018-05-18T02:20:15.980Z,78.22
2018-05-18T02:21:16.036Z,78.59
2018-05-18T02:23:09.032Z,78.50
2018-05-18T02:24:09.083Z,78.41
2018-05-18T02:26:02.072Z,78.59
2018-05-18T02:27:02.128Z,78.50
2018-05-18T02:28:55.112Z,79.02
2018-05-18T02:29:55.174Z,78.69
2018-05-18T02:31:48.163Z,78.41
2018-05-18T02:32:48.215Z,78.50
2018-05-18T02:34:41.204Z,78.41
2018-05-18T02:35:41.263Z,77.93
2018-05-18T02:37:34.242Z,78.03
2018-05-18T02:38:34.302Z,78.50
2018-05-18T02:40:27.320Z,78.78
2018-05-18T02:41:27.346Z,78.69
2018-05-18T02:43:20.331Z,78.69
2018-05-18T02:44:20.390Z,77.64
2018-05-18T02:46:13.388Z,78.98
2018-05-18T02:47:13.433Z,78.35
2018-05-18T02:49:06.418Z,78.69
2018-05-18T02:50:06.480Z,78.35
2018-05-18T02:51:59.471Z,78.88
2018-05-18T02:52:59.527Z,78.73
2018-05-18T02:54:52.517Z,78.22
2018-05-18T02:55:52.574Z,78.44
2018-05-18T02:57:45.554Z,78.31
2018-05-18T02:58:45.616Z,77.74
2018-05-18T03:00:38.603Z,78.98
2018-05-18T03:01:38.658Z,78.41
2018-05-18T03:03:31.643Z,77.83
2018-05-18T03:04:31.702Z,78.12
2018-05-18T03:06:24.692Z,78.50
2018-05-18T03:07:24.748Z,78.03
2018-05-18T03:09:17.737Z,77.83
2018-05-18T03:10:17.792Z,78.50
2018-05-18T03:12:10.783Z,78.41
2018-05-18T03:13:10.837Z,78.31
2018-05-18T03:15:03.842Z,77.64
2018-05-18T03:16:03.880Z,78.50
2018-05-18T03:17:56.865Z,78.59
2018-05-18T03:18:56.925Z,78.50
2018-05-18T03:20:49.916Z,77.74
2018-05-18T03:21:49.967Z,78.22
2018-05-18T03:23:43.461Z,78.03
2018-05-18T03:24:43.521Z,78.41
2018-05-18T03:26:36.508Z,78.50
2018-05-18T03:27:36.563Z,78.31
2018-05-18T03:29:29.543Z,78.50
2018-05-18T03:30:29.605Z,78.50
2018-05-18T03:32:22.603Z,78.59
2018-05-18T03:33:22.665Z,78.88
2018-05-18T03:35:15.648Z,78.78
2018-05-18T03:36:15.704Z,78.03
2018-05-18T03:38:08.698Z,78.12
2018-05-18T03:39:08.762Z,77.93
2018-05-18T03:41:01.763Z,78.69
2018-05-18T03:42:01.816Z,78.27
2018-05-18T03:43:54.808Z,78.03
2018-05-18T03:44:54.868Z,78.50
2018-05-18T03:46:47.859Z,77.61
2018-05-18T03:47:47.911Z,77.93
2018-05-18T03:49:40.899Z,77.83
2018-05-18T03:50:40.967Z,78.41
2018-05-18T03:52:33.958Z,78.50
2018-05-18T03:53:34.006Z,78.56
2018-05-18T03:55:27.005Z,78.50
2018-05-18T03:56:27.054Z,78.69
2018-05-18T03:58:20.037Z,77.64
2018-05-18T03:59:20.098Z,78.17
2018-05-18T04:01:13.092Z,78.31
2018-05-18T04:02:13.148Z,78.03
2018-05-18T04:04:06.136Z,78.59
2018-05-18T04:05:06.204Z,78.69
2018-05-18T04:06:59.186Z,78.22
2018-05-18T04:07:59.240Z,78.12
2018-05-18T04:09:52.227Z,78.12
2018-05-18T04:10:52.284Z,78.17
2018-05-18T04:12:45.281Z,77.98
2018-05-18T04:13:45.337Z,78.46
2018-05-18T04:15:38.328Z,77.74
2018-05-18T04:16:38.379Z,78.41
2018-05-18T04:18:31.362Z,78.50
2018-05-18T04:19:31.423Z,78.78
2018-05-18T04:21:24.418Z,78.03
2018-05-18T04:22:24.468Z,78.69
2018-05-18T04:24:17.450Z,79.07
2018-05-18T04:25:17.508Z,77.55
2018-05-18T04:27:10.501Z,78.12
2018-05-18T04:28:10.557Z,78.03
2018-05-18T04:30:03.541Z,78.31
2018-05-18T04:31:03.597Z,78.78
2018-05-18T04:32:56.593Z,78.22
2018-05-18T04:33:56.645Z,78.31
2018-05-18T04:35:49.666Z,78.12
2018-05-18T04:36:49.721Z,78.03
2018-05-18T04:38:42.703Z,78.12
2018-05-18T04:39:42.764Z,77.80
2018-05-18T04:41:35.755Z,78.31
2018-05-18T04:42:35.809Z,78.03
2018-05-18T04:44:28.792Z,77.93
2018-05-18T04:45:28.852Z,78.31
2018-05-18T04:47:21.847Z,78.12
2018-05-18T04:48:21.902Z,77.93
2018-05-18T04:50:14.889Z,78.31
2018-05-18T04:51:14.950Z,78.41
2018-05-18T04:53:07.942Z,78.31
2018-05-18T04:54:07.996Z,77.93
2018-05-18T04:56:00.988Z,78.03
2018-05-18T04:57:01.039Z,77.93
2018-05-18T04:58:54.113Z,78.22
2018-05-18T04:59:54.088Z,77.93
2018-05-18T05:01:47.086Z,77.83
2018-05-18T05:02:47.140Z,78.12
2018-05-18T05:04:40.124Z,77.74
2018-05-18T05:05:40.186Z,78.31
2018-05-18T05:07:33.183Z,78.41
2018-05-18T05:08:33.228Z,77.97
2018-05-18T05:10:26.222Z,78.25
2018-05-18T05:11:26.283Z,78.06
2018-05-18T05:13:19.281Z,77.69
2018-05-18T05:14:19.331Z,77.87
2018-05-18T05:16:12.327Z,77.69
2018-05-18T05:17:12.414Z,77.97
2018-05-18T05:19:05.369Z,78.06
2018-05-18T05:20:05.430Z,77.97
2018-05-18T05:21:58.424Z,77.87
2018-05-18T05:22:58.478Z,77.11
2018-05-18T05:24:51.471Z,78.16
2018-05-18T05:25:51.529Z,78.01
2018-05-18T05:27:44.524Z,78.10
2018-05-18T05:28:44.580Z,77.62
2018-05-18T05:30:37.657Z,77.34
2018-05-18T05:31:37.628Z,77.25
2018-05-18T05:33:30.614Z,77.44
2018-05-18T05:34:30.670Z,76.77
2018-05-18T05:36:23.664Z,77.82
2018-05-18T05:37:23.717Z,77.82
2018-05-18T05:39:16.701Z,77.25
2018-05-18T05:40:16.764Z,76.62
2018-05-18T05:42:09.756Z,77.67
2018-05-18T05:43:09.808Z,77.67
2018-05-18T05:45:02.801Z,77.00
2018-05-18T05:46:02.864Z,78.14
2018-05-18T05:47:55.855Z,76.67
2018-05-18T05:48:55.910Z,76.96
2018-05-18T05:50:48.895Z,77.38
2018-05-18T05:51:48.957Z,76.81
2018-05-18T05:53:41.948Z,76.62
2018-05-18T05:54:42.004Z,76.71
2018-05-18T05:56:34.997Z,76.71
2018-05-18T05:57:35.053Z,76.14
2018-05-18T05:59:28.046Z,76.71
2018-05-18T06:00:28.108Z,77.47
2018-05-18T06:02:21.106Z,76.71
2018-05-18T06:03:21.162Z,76.42
2018-05-18T06:05:14.160Z,76.62
2018-05-18T06:06:14.202Z,76.14
2018-05-18T06:08:07.195Z,76.23
2018-05-18T06:09:07.250Z,76.81
2018-05-18T06:11:00.236Z,76.56
2018-05-18T06:12:00.298Z,76.37
2018-05-18T06:13:53.297Z,76.18
2018-05-18T06:14:53.345Z,76.84
2018-05-18T06:16:46.341Z,76.27
2018-05-18T06:17:46.397Z,75.83
2018-05-18T06:19:39.394Z,75.03
2018-05-18T06:20:39.453Z,74.84
2018-05-18T06:22:32.453Z,75.42
2018-05-18T06:23:32.511Z,76.08
2018-05-18T06:25:25.508Z,75.03
2018-05-18T06:26:25.567Z,76.27
2018-05-18T06:28:18.569Z,75.79
2018-05-18T06:29:18.620Z,75.60
2018-05-18T06:31:11.608Z,75.83
2018-05-18T06:32:11.670Z,76.12
2018-05-18T06:34:04.666Z,75.16
2018-05-18T06:35:04.803Z,74.49
2018-05-18T06:36:58.222Z,73.92
2018-05-18T06:37:58.274Z,73.67
2018-05-18T06:39:51.264Z,72.72
2018-05-18T06:40:51.325Z,73.00
2018-05-18T06:42:44.322Z,72.81
2018-05-18T06:43:44.376Z,72.53
2018-05-18T06:45:37.365Z,73.63
2018-05-18T06:46:37.431Z,74.02
2018-05-18T06:48:30.428Z,73.83
2018-05-18T06:49:30.487Z,73.25
2018-05-18T06:51:23.472Z,73.00
2018-05-18T06:52:23.533Z,72.53
2018-05-18T06:54:16.527Z,69.21
2018-05-18T06:55:16.589Z,69.70
2018-05-18T06:57:09.588Z,71.26
2018-05-18T06:58:09.645Z,69.25
2018-05-18T07:00:02.637Z,68.74
2018-05-18T07:01:02.699Z,70.27
2018-05-18T07:02:56.703Z,71.86
2018-05-18T07:03:56.760Z,73.67
2018-05-18T07:05:49.748Z,73.92
2018-05-18T07:06:49.810Z,74.65
2018-05-18T07:08:42.806Z,72.69
2018-05-18T07:09:42.861Z,65.01
2018-05-18T07:11:35.855Z,60.93
2018-05-18T07:12:35.916Z,62.62
2018-05-18T07:14:28.916Z,61.27
2018-05-18T07:15:28.971Z,56.37
2018-05-18T07:17:21.975Z,52.97
2018-05-18T07:18:22.035Z,51.53
2018-05-18T07:20:15.026Z,52.26
2018-05-18T07:21:15.093Z,53.11
2018-05-18T07:23:08.154Z,52.84
2018-05-18T07:24:08.154Z,53.85
2018-05-18T07:26:01.147Z,56.09
2018-05-18T07:27:01.219Z,57.70
2018-05-18T07:28:54.215Z,60.09
2018-05-18T07:29:54.279Z,58.81
2018-05-18T07:31:47.284Z,48.93
2018-05-18T07:32:47.348Z,46.33
2018-05-18T07:34:40.359Z,46.38
2018-05-18T07:35:40.421Z,47.58
2018-05-18T07:37:33.933Z,51.23
2018-05-18T07:38:33.991Z,53.50
2018-05-18T07:40:27.002Z,56.71
2018-05-18T07:41:27.060Z,58.59
2018-05-18T07:43:20.059Z,60.03
2018-05-18T07:44:20.125Z,58.52
2018-05-18T07:46:13.131Z,48.69
2018-05-18T07:47:13.193Z,45.89
2018-05-18T07:49:06.201Z,40.40
2018-05-18T07:50:06.309Z,40.15
2018-05-18T07:51:59.267Z,43.87
2018-05-18T07:52:59.331Z,44.09
2018-05-18T07:54:52.342Z,46.26
2018-05-18T07:55:52.406Z,47.56
2018-05-18T07:57:45.419Z,50.18
2018-05-18T07:58:45.483Z,50.90
2018-05-18T08:00:38.486Z,53.89
2018-05-18T08:01:38.553Z,53.86
2018-05-18T08:03:31.571Z,55.33
2018-05-18T08:04:31.621Z,50.30
2018-05-18T08:06:24.626Z,41.54
2018-05-18T08:07:24.688Z,38.23
2018-05-18T08:09:17.698Z,35.13
2018-05-18T08:10:17.762Z,33.80
2018-05-18T08:12:10.780Z,31.66
2018-05-18T08:13:10.848Z,30.11
2018-05-18T08:15:03.941Z,31.65
2018-05-18T08:16:03.926Z,31.66
2018-05-18T08:17:56.948Z,31.26
2018-05-18T08:18:57.016Z,31.68
2018-05-18T08:20:50.023Z,30.02
2018-05-18T08:21:50.097Z,30.21
2018-05-18T08:23:43.118Z,30.57
2018-05-18T08:24:43.188Z,31.34
2018-05-18T08:26:36.207Z,31.05
2018-05-18T08:27:36.372Z,30.85
2018-05-18T08:29:29.303Z,30.51
2018-05-18T08:30:29.371Z,29.64
2018-05-18T08:32:22.397Z,28.88
2018-05-18T08:33:22.471Z,28.78
2018-05-18T08:35:15.494Z,30.11
2018-05-18T08:36:15.566Z,30.47
2018-05-18T08:38:08.592Z,31.50
2018-05-18T08:39:08.663Z,32.20
2018-05-18T08:41:01.680Z,31.82
2018-05-18T08:42:01.757Z,31.52
2018-05-18T08:43:54.785Z,32.50
2018-05-18T08:44:54.856Z,31.74
2018-05-18T08:46:47.878Z,30.22
2018-05-18T08:47:47.955Z,29.64
2018-05-18T08:49:40.981Z,31.70
2018-05-18T08:50:41.055Z,34.63
2018-05-18T08:52:34.080Z,38.70
2018-05-18T08:53:34.160Z,39.53
2018-05-18T08:55:27.190Z,40.69
2018-05-18T08:56:27.251Z,40.76
2018-05-18T08:58:20.275Z,41.24
2018-05-18T08:59:20.341Z,41.44
2018-05-18T09:01:13.355Z,38.35
2018-05-18T09:02:13.431Z,37.92
2018-05-18T09:04:06.457Z,36.34
2018-05-18T09:05:06.516Z,37.29
2018-05-18T09:06:59.532Z,38.70
2018-05-18T09:07:59.609Z,39.95
2018-05-18T09:09:52.624Z,39.16
2018-05-18T09:10:52.691Z,40.28
2018-05-18T09:12:45.699Z,40.92
2018-05-18T09:13:45.773Z,37.32
2018-05-18T09:15:38.823Z,34.38
2018-05-18T09:16:38.881Z,34.28
2018-05-18T09:18:31.900Z,32.75
2018-05-18T09:19:31.969Z,34.23
2018-05-18T09:21:25.012Z,36.72
2018-05-18T09:22:25.056Z,38.23
2018-05-18T09:24:18.070Z,38.49
2018-05-18T09:25:18.138Z,39.91
2018-05-18T09:27:11.149Z,41.07
2018-05-18T09:28:11.220Z,41.46
2018-05-18T09:30:04.232Z,40.76
2018-05-18T09:31:04.299Z,43.85
2018-05-18T09:32:57.307Z,43.71
2018-05-18T09:33:57.473Z,45.32
2018-05-18T09:35:50.394Z,46.55
2018-05-18T09:36:50.456Z,45.87
2018-05-18T09:38:43.463Z,46.89
2018-05-18T09:39:43.576Z,47.63
2018-05-18T09:41:36.535Z,50.13
2018-05-18T09:42:36.616Z,49.26
2018-05-18T09:44:29.614Z,51.18
2018-05-18T09:45:29.673Z,50.61
2018-05-18T09:47:22.680Z,51.67
2018-05-18T09:48:22.746Z,52.14
2018-05-18T09:50:15.755Z,51.47
2018-05-18T09:51:15.809Z,52.65
2018-05-18T09:53:08.812Z,50.34
2018-05-18T09:54:08.933Z,50.08
2018-05-18T09:56:01.887Z,49.51
2018-05-18T09:57:01.948Z,49.22
2018-05-18T09:58:54.963Z,50.18
2018-05-18T09:59:55.017Z,49.69
2018-05-18T10:01:48.019Z,48.13
2018-05-18T10:02:48.084Z,48.88
2018-05-18T10:04:41.095Z,51.28
2018-05-18T10:05:41.163Z,51.35
2018-05-18T10:07:34.160Z,52.60
2018-05-18T10:08:34.305Z,53.36
2018-05-18T10:10:27.234Z,51.45
2018-05-18T10:11:27.294Z,52.12
2018-05-18T10:13:20.291Z,52.43
2018-05-18T10:14:20.357Z,52.72
2018-05-18T10:16:13.364Z,50.82
2018-05-18T10:17:13.424Z,50.34
2018-05-18T10:19:06.428Z,49.67
2018-05-18T10:20:06.491Z,49.60
2018-05-18T10:21:59.489Z,51.74
2018-05-18T10:22:59.556Z,51.35
2018-05-18T10:24:52.559Z,48.47
2018-05-18T10:25:52.620Z,48.38
2018-05-18T10:27:45.619Z,48.66
2018-05-18T10:28:45.686Z,47.70
2018-05-18T10:30:38.692Z,48.16
2018-05-18T10:31:38.752Z,48.35
2018-05-18T10:33:31.752Z,51.91
2018-05-18T10:34:31.821Z,48.64
2018-05-18T10:36:24.825Z,48.93
2018-05-18T10:37:24.883Z,48.45
2018-05-18T10:39:17.895Z,48.93
2018-05-18T10:40:17.956Z,48.25
2018-05-18T10:42:10.959Z,49.29
2018-05-18T10:43:11.024Z,50.80
2018-05-18T10:45:04.046Z,52.91
2018-05-18T10:46:04.090Z,51.47
2018-05-18T10:47:57.094Z,51.64
2018-05-18T10:48:57.158Z,53.05
2018-05-18T10:50:50.169Z,54.94
2018-05-18T10:51:50.232Z,54.78
2018-05-18T10:53:43.232Z,55.42
2018-05-18T10:54:43.306Z,55.35
2018-05-18T10:56:36.302Z,60.72
2018-05-18T10:57:36.366Z,58.91
2018-05-18T10:59:29.365Z,56.24
2018-05-18T11:00:29.425Z,55.10
2018-05-18T11:02:22.423Z,53.85
2018-05-18T11:03:22.491Z,54.30
2018-05-18T11:05:15.569Z,53.27
2018-05-18T11:06:15.550Z,52.50
2018-05-18T11:08:08.550Z,55.96
2018-05-18T11:09:08.616Z,54.64
2018-05-18T11:11:01.618Z,50.54
2018-05-18T11:12:01.683Z,51.02
2018-05-18T11:13:54.707Z,51.37
2018-05-18T11:14:54.748Z,52.79
2018-05-18T11:16:47.751Z,53.46
2018-05-18T11:17:47.809Z,54.13
2018-05-18T11:19:40.814Z,54.88
2018-05-18T11:20:40.876Z,56.31
2018-05-18T11:22:33.871Z,55.52
2018-05-18T11:23:33.935Z,55.74
2018-05-18T11:25:26.942Z,55.74
2018-05-18T11:26:27.098Z,55.55
2018-05-18T11:28:20.016Z,55.45
2018-05-18T11:29:20.084Z,55.64
2018-05-18T11:31:13.087Z,56.31
2018-05-18T11:32:13.143Z,54.68
2018-05-18T11:34:06.137Z,56.02
2018-05-18T11:35:06.205Z,56.98
2018-05-18T11:36:59.205Z,55.74
2018-05-18T11:37:59.264Z,55.55
2018-05-18T11:39:52.266Z,54.58
2018-05-18T11:40:52.331Z,54.52
2018-05-18T11:42:45.323Z,57.71
2018-05-18T11:43:45.388Z,54.25
2018-05-18T11:45:38.391Z,59.73
2018-05-18T11:46:38.448Z,57.90
2018-05-18T11:48:31.443Z,55.15
2018-05-18T11:49:31.511Z,54.96
2018-05-18T11:51:24.514Z,53.11
2018-05-18T11:52:24.573Z,53.20
2018-05-18T11:54:17.574Z,53.36
2018-05-18T11:55:17.637Z,54.49
2018-05-18T11:57:10.645Z,54.58
2018-05-18T11:58:10.703Z,55.55
2018-05-18T12:00:03.710Z,55.26
2018-05-18T12:01:03.766Z,55.07
2018-05-18T12:02:56.803Z,55.26
2018-05-18T12:03:56.829Z,55.93
2018-05-18T12:05:49.832Z,56.98
2018-05-18T12:06:49.887Z,55.93
2018-05-18T12:08:42.955Z,55.55
2018-05-18T12:09:42.951Z,56.60
2018-05-18T12:11:35.951Z,57.85
2018-05-18T12:12:36.009Z,58.52
2018-05-18T12:14:29.007Z,55.83
2018-05-18T12:15:29.067Z,56.31
2018-05-18T12:17:22.071Z,59.45
2018-05-18T12:18:22.132Z,60.05
2018-05-18T12:20:15.137Z,59.00
2018-05-18T12:21:15.195Z,59.09
2018-05-18T12:23:08.190Z,56.70
2018-05-18T12:24:08.265Z,57.08
2018-05-18T12:26:01.260Z,57.28
2018-05-18T12:27:01.310Z,56.60
2018-05-18T12:28:54.338Z,55.93
2018-05-18T12:29:54.396Z,58.01
2018-05-18T12:31:47.394Z,58.71
2018-05-18T12:32:47.454Z,56.22
2018-05-18T12:34:40.447Z,54.88
2018-05-18T12:35:40.512Z,55.74
2018-05-18T12:37:34.022Z,57.46
2018-05-18T12:38:34.078Z,55.93
2018-05-18T12:40:27.077Z,56.22
2018-05-18T12:41:27.142Z,55.45
2018-05-18T12:43:20.127Z,61.69
2018-05-18T12:44:20.193Z,58.81
2018-05-18T12:46:13.195Z,54.88
2018-05-18T12:47:13.250Z,55.64
2018-05-18T12:49:06.330Z,56.79
2018-05-18T12:50:06.310Z,56.22
2018-05-18T12:51:59.309Z,56.60
2018-05-18T12:52:59.371Z,55.93
2018-05-18T12:54:52.361Z,56.31
2018-05-18T12:55:52.425Z,57.06
2018-05-18T12:57:45.424Z,57.43
2018-05-18T12:58:45.481Z,57.63
2018-05-18T13:00:38.479Z,58.97
2018-05-18T13:01:38.536Z,57.63
2018-05-18T13:03:31.530Z,62.13
2018-05-18T13:04:31.593Z,59.74
2018-05-18T13:06:24.595Z,58.20
2018-05-18T13:07:24.652Z,58.30
2018-05-18T13:09:17.645Z,58.30
2018-05-18T13:10:17.712Z,57.72
2018-05-18T13:12:10.707Z,58.97
2018-05-18T13:13:10.767Z,59.64
2018-05-18T13:15:03.765Z,58.71
2018-05-18T13:16:03.822Z,58.14
2018-05-18T13:17:56.821Z,58.23
2018-05-18T13:18:56.881Z,59.19
2018-05-18T13:20:49.953Z,57.56
2018-05-18T13:21:49.943Z,57.15
2018-05-18T13:23:42.928Z,58.23
2018-05-18T13:24:42.993Z,58.23
2018-05-18T13:26:35.992Z,56.51
2018-05-18T13:27:36.050Z,56.79
2018-05-18T13:29:29.048Z,58.52
2018-05-18T13:30:29.187Z,62.74
2018-05-18T13:32:22.106Z,59.99
2018-05-18T13:33:22.162Z,59.29
2018-05-18T13:35:15.152Z,59.03
2018-05-18T13:36:15.220Z,58.62
2018-05-18T13:38:08.727Z,59.96
2018-05-18T13:39:08.781Z,60.63
2018-05-18T13:41:02.293Z,62.74
2018-05-18T13:42:02.349Z,61.21
2018-05-18T13:43:55.842Z,60.92
2018-05-18T13:44:55.998Z,60.44
2018-05-18T13:46:49.608Z,62.93
2018-05-18T13:47:49.500Z,62.26
2018-05-18T13:49:43.104Z,62.55
2018-05-18T13:50:43.098Z,62.26
2018-05-18T13:52:36.627Z,59.67
2018-05-18T13:53:36.653Z,59.70
2018-05-18T13:55:30.178Z,58.26
2018-05-18T13:56:30.233Z,58.17
2018-05-18T13:58:23.734Z,57.50
2018-05-18T13:59:23.791Z,56.82
2018-05-18T14:01:17.290Z,57.97
2018-05-18T14:02:17.358Z,62.29
2018-05-18T14:04:10.871Z,57.40
2018-05-18T14:05:10.943Z,57.88
2018-05-18T14:07:04.460Z,59.32
2018-05-18T14:08:04.520Z,58.84
2018-05-18T14:09:58.010Z,56.73
2018-05-18T14:10:58.120Z,57.78
2018-05-18T14:12:51.588Z,57.97
2018-05-18T14:13:51.646Z,57.68
2018-05-18T14:15:44.639Z,57.08
2018-05-18T14:16:44.706Z,56.98
2018-05-18T14:18:37.706Z,59.00
2018-05-18T14:19:37.765Z,59.41
2018-05-18T14:21:30.760Z,57.59
2018-05-18T14:22:30.816Z,57.68
2018-05-18T14:24:23.817Z,57.50
2018-05-18T14:25:23.876Z,57.68
2018-05-18T14:27:16.888Z,60.72
2018-05-18T14:28:16.940Z,60.18
2018-05-18T14:30:09.934Z,59.29
2018-05-18T14:31:09.999Z,59.58
2018-05-18T14:33:03.002Z,59.96
2018-05-18T14:34:03.059Z,60.38
2018-05-18T14:35:56.059Z,61.30
2018-05-18T14:36:56.122Z,59.58
2018-05-18T14:38:49.119Z,59.77
2018-05-18T14:39:49.181Z,59.58
2018-05-18T14:41:42.180Z,62.74
2018-05-18T14:42:42.237Z,62.68
2018-05-18T14:44:35.239Z,60.66
2018-05-18T14:45:35.299Z,59.22
2018-05-18T14:47:28.299Z,61.33
2018-05-18T14:48:28.357Z,60.08
2018-05-18T14:50:21.353Z,60.82
2018-05-18T14:51:21.419Z,61.21
2018-05-18T14:53:14.425Z,61.49
2018-05-18T14:54:14.479Z,60.63
2018-05-18T14:56:07.476Z,60.53
2018-05-18T14:57:07.537Z,59.86
2018-05-18T14:59:00.544Z,61.11
2018-05-18T15:00:00.596Z,61.59
2018-05-18T15:01:53.596Z,62.26
2018-05-18T15:02:53.652Z,63.22
2018-05-18T15:04:46.645Z,63.70
2018-05-18T15:05:46.717Z,60.53
2018-05-18T15:07:39.717Z,61.40
2018-05-18T15:08:39.765Z,59.96
2018-05-18T15:10:32.759Z,60.44
2018-05-18T15:11:32.821Z,60.72
2018-05-18T15:13:25.825Z,63.70
2018-05-18T15:14:25.886Z,63.70
2018-05-18T15:16:18.879Z,63.22
2018-05-18T15:17:18.963Z,65.14
2018-05-18T15:19:11.946Z,64.66
2018-05-18T15:20:12.000Z,64.09
2018-05-18T15:22:05.016Z,62.84
2018-05-18T15:23:05.073Z,62.55
2018-05-18T15:24:58.089Z,63.32
2018-05-18T15:25:58.144Z,62.07
2018-05-18T15:27:51.180Z,62.93
2018-05-18T15:28:51.283Z,62.45
2018-05-18T15:30:44.194Z,63.22
2018-05-18T15:31:44.255Z,62.65
2018-05-18T15:33:37.270Z,64.47
2018-05-18T15:34:37.318Z,64.47
2018-05-18T15:36:30.311Z,64.09
2018-05-18T15:37:30.370Z,63.99
2018-05-18T15:39:23.388Z,66.39
2018-05-18T15:40:23.428Z,63.32
2018-05-18T15:42:16.428Z,63.22
2018-05-18T15:43:16.486Z,64.09
2018-05-18T15:45:09.472Z,63.51
2018-05-18T15:46:09.548Z,63.22
2018-05-18T15:48:02.544Z,63.12
2018-05-18T15:49:02.741Z,63.22
2018-05-18T15:50:55.598Z,62.74
2018-05-18T15:51:55.664Z,61.98
2018-05-18T15:53:48.682Z,62.65
2018-05-18T15:54:48.724Z,63.19
2018-05-18T15:56:41.715Z,65.81
2018-05-18T15:57:41.783Z,63.86
2018-05-18T15:59:34.777Z,63.42
2018-05-18T16:00:34.835Z,64.28
2018-05-18T16:02:27.851Z,65.72
2018-05-18T16:03:27.910Z,64.09
2018-05-18T16:05:20.905Z,65.05
2018-05-18T16:06:20.968Z,63.70
2018-05-18T16:08:13.969Z,62.74
2018-05-18T16:09:14.027Z,63.12
2018-05-18T16:11:07.022Z,65.43
2018-05-18T16:12:07.098Z,63.99
2018-05-18T16:14:00.089Z,62.93
2018-05-18T16:15:00.143Z,63.22
2018-05-18T16:16:53.130Z,62.16
2018-05-18T16:17:53.194Z,62.93
2018-05-18T16:19:46.199Z,62.07
2018-05-18T16:20:46.251Z,61.49
2018-05-18T16:22:39.253Z,61.69
2018-05-18T16:23:39.309Z,61.59
2018-05-18T16:25:32.309Z,63.19
2018-05-18T16:26:32.367Z,63.57
2018-05-18T16:28:25.365Z,65.97
2018-05-18T16:29:25.422Z,65.88
2018-05-18T16:31:18.415Z,65.30
2018-05-18T16:32:18.478Z,65.01
2018-05-18T16:34:11.477Z,64.43
2018-05-18T16:35:11.537Z,64.43
2018-05-18T16:37:04.526Z,65.43
2018-05-18T16:38:04.591Z,64.76
2018-05-18T16:39:57.635Z,64.18
2018-05-18T16:40:57.651Z,63.12
2018-05-18T16:42:50.698Z,64.05
2018-05-18T16:43:50.700Z,63.86
2018-05-18T16:45:43.695Z,64.53
2018-05-18T16:46:43.755Z,63.96
2018-05-18T16:48:36.755Z,64.25
2018-05-18T16:49:36.818Z,63.76
2018-05-18T16:51:29.801Z,63.00
2018-05-18T16:52:29.873Z,63.29
2018-05-18T16:54:22.867Z,63.96
2018-05-18T16:55:22.925Z,63.38
2018-05-18T16:57:15.921Z,63.00
2018-05-18T16:58:15.978Z,63.67
2018-05-18T17:00:08.981Z,63.19
2018-05-18T17:01:09.037Z,64.25
2018-05-18T17:03:02.034Z,66.26
2018-05-18T17:04:02.093Z,65.97
2018-05-18T17:05:55.087Z,65.11
2018-05-18T17:06:55.148Z,64.34
2018-05-18T17:08:48.157Z,64.92
2018-05-18T17:09:48.208Z,64.15
2018-05-18T17:11:41.195Z,64.89
2018-05-18T17:12:41.262Z,64.50
2018-05-18T17:14:34.260Z,65.26
2018-05-18T17:15:34.317Z,66.03
2018-05-18T17:17:27.315Z,66.71
2018-05-18T17:18:27.371Z,67.95
2018-05-18T17:20:20.370Z,68.91
2018-05-18T17:21:20.429Z,68.08
2018-05-18T17:23:13.426Z,66.99
2018-05-18T17:24:13.482Z,66.99
2018-05-18T17:26:06.473Z,68.05
2018-05-18T17:27:06.540Z,67.85
2018-05-18T17:28:59.543Z,68.91
2018-05-18T17:29:59.596Z,67.57
2018-05-18T17:31:52.586Z,67.76
2018-05-18T17:32:52.649Z,68.14
2018-05-18T17:34:45.653Z,68.72
2018-05-18T17:35:45.706Z,70.25
2018-05-18T17:37:40.224Z,68.05
2018-05-18T17:38:40.265Z,68.81
2018-05-18T17:40:33.267Z,67.47
2018-05-18T17:41:33.324Z,68.05
2018-05-18T17:43:26.324Z,68.91
2018-05-18T17:44:26.381Z,68.24
2018-05-18T17:46:19.375Z,67.47
2018-05-18T17:47:19.440Z,67.76
2018-05-18T17:49:12.443Z,68.05
2018-05-18T17:50:12.499Z,68.68
2018-05-18T17:52:05.529Z,68.97
2018-05-18T17:53:05.558Z,69.17
2018-05-18T17:54:58.560Z,68.14
2018-05-18T17:55:58.613Z,67.76
2018-05-18T17:57:51.607Z,67.82
2018-05-18T17:58:51.669Z,68.91
2018-05-18T18:00:44.663Z,68.72
2018-05-18T18:01:44.724Z,69.39
2018-05-18T18:03:37.724Z,70.98
2018-05-18T18:04:37.779Z,70.50
2018-05-18T18:06:30.779Z,70.60
2018-05-18T18:07:30.842Z,70.89
2018-05-18T18:09:24.357Z,71.84
2018-05-18T18:10:24.409Z,70.89
2018-05-18T18:12:17.403Z,71.75
2018-05-18T18:13:17.466Z,72.13
2018-05-18T18:15:10.464Z,72.42
2018-05-18T18:16:10.519Z,72.52
2018-05-18T18:18:03.518Z,72.86
2018-05-18T18:19:03.579Z,72.61
2018-05-18T18:20:56.579Z,72.03
2018-05-18T18:21:56.633Z,72.42
2018-05-18T18:23:49.632Z,72.48
2018-05-18T18:24:49.688Z,73.09
2018-05-18T18:26:42.683Z,72.23
2018-05-18T18:27:42.748Z,72.38
2018-05-18T18:29:35.747Z,72.29
2018-05-18T18:30:35.804Z,72.38
2018-05-18T18:32:28.802Z,72.58
2018-05-18T18:33:28.861Z,72.48
2018-05-18T18:35:21.861Z,73.05